PWSweather.com
Personal Weather Stations
Station Observations
948974
Valtournenche, AostaIT 11028

ValtournencheAostaIT 11028

Lat: 45.877222, Lon: 7.625556

Elevation: 5085.3018

Station Type: PCE-FWS 20

http://www.cdso.it

High Low Average
Temperature 39.9°F4.4°C 21.1°F-6.1°C 30.4°F-0.9°C
Dew Point 22.1°F-5.5°C -0.4°F-18.0°C 10.8°F-11.8°C
Winds 15.0 mph 24.1 kmh 1.0 mph 1.6 kmh 5.0 mph SE8.0 kmh SE
Wind Gusts 22.0 mph35.4 kmh 2.0 mph3.2 kmh 9.0 mph14.5 kmh
Humidity 87% 21% 49%
Pressure 30.41 in1029.8 mb 30.03 in1016.9 mb -
Precipitation 0.00 in0.0 mm - -
Hour Temp Dew Point Humidity Winds Wind Gusts Pressure Precip Precip Rate Daily Precip Total
12:11 AM 39.9°F4.4°C 11.0°F-11.7°C 30% 4.0 mph S6.4 kmh S 6.0 mph9.7 kmh 30.08 in1018.6 mb 0.00 in0.0 mm 0.00 in0.0 mm 0.00 in0.0 mm
12:32 AM 38.8°F3.8°C 11.5°F-11.4°C 32% 2.0 mph SSE3.2 kmh SSE 3.0 mph4.8 kmh 30.09 in1019.0 mb 0.00 in0.0 mm 0.00 in0.0 mm 0.00 in0.0 mm
12:53 AM 39.0°F3.9°C 11.0°F-11.7°C 31% 2.0 mph SW3.2 kmh SW 3.0 mph4.8 kmh 30.08 in1018.6 mb 0.00 in0.0 mm 0.00 in0.0 mm 0.00 in0.0 mm
01:14 AM 38.3°F3.5°C 11.7°F-11.3°C 33% 2.0 mph NE3.2 kmh NE 3.0 mph4.8 kmh 30.08 in1018.6 mb 0.00 in0.0 mm 0.00 in0.0 mm 0.00 in0.0 mm
01:35 AM 39.2°F4.0°C 11.8°F-11.2°C 32% 2.0 mph NE3.2 kmh NE 3.0 mph4.8 kmh 30.06 in1017.9 mb 0.00 in0.0 mm 0.00 in0.0 mm 0.00 in0.0 mm
01:56 AM 37.8°F3.2°C 12.6°F-10.8°C 35% 5.0 mph S8.0 kmh S 8.0 mph12.9 kmh 30.08 in1018.6 mb 0.00 in0.0 mm 0.00 in0.0 mm 0.00 in0.0 mm
02:17 AM 37.6°F3.1°C 13.7°F-10.2°C 37% 2.0 mph NW3.2 kmh NW 4.0 mph6.4 kmh 30.06 in1017.9 mb 0.00 in0.0 mm 0.00 in0.0 mm 0.00 in0.0 mm
02:38 AM 39.4°F4.1°C 8.2°F-13.2°C 27% 4.0 mph 6.4 kmh 6.0 mph9.7 kmh 30.04 in1017.3 mb 0.00 in0.0 mm 0.00 in0.0 mm 0.00 in0.0 mm
02:59 AM 37.9°F3.3°C 10.0°F-12.2°C 31% 4.0 mph SE6.4 kmh SE 6.0 mph9.7 kmh 30.05 in1017.6 mb 0.00 in0.0 mm 0.00 in0.0 mm 0.00 in0.0 mm
03:20 AM 38.1°F3.4°C 9.5°F-12.5°C 30% 4.0 mph S6.4 kmh S 8.0 mph12.9 kmh 30.04 in1017.3 mb 0.00 in0.0 mm 0.00 in0.0 mm 0.00 in0.0 mm
03:41 AM 37.6°F3.1°C 9.7°F-12.4°C 31% 5.0 mph S8.0 kmh S 8.0 mph12.9 kmh 30.04 in1017.3 mb 0.00 in0.0 mm 0.00 in0.0 mm 0.00 in0.0 mm
04:02 AM 38.3°F3.5°C 9.6°F-12.4°C 30% 8.0 mph SW12.9 kmh SW 15.0 mph24.1 kmh 30.03 in1016.9 mb 0.00 in0.0 mm 0.00 in0.0 mm 0.00 in0.0 mm
04:23 AM 38.5°F3.6°C 7.4°F-13.7°C 27% 6.0 mph SW9.7 kmh SW 9.0 mph14.5 kmh 30.03 in1016.9 mb 0.00 in0.0 mm 0.00 in0.0 mm 0.00 in0.0 mm
04:44 AM 38.1°F3.4°C 7.1°F-13.8°C 27% 2.0 mph S3.2 kmh S 4.0 mph6.4 kmh 30.04 in1017.3 mb 0.00 in0.0 mm 0.00 in0.0 mm 0.00 in0.0 mm
05:05 AM 37.4°F3.0°C 6.5°F-14.2°C 27% 8.0 mph SW12.9 kmh SW 12.0 mph19.3 kmh 30.06 in1017.9 mb 0.00 in0.0 mm 0.00 in0.0 mm 0.00 in0.0 mm
05:26 AM 37.0°F2.8°C 1.8°F-16.8°C 22% 12.0 mph SW19.3 kmh SW 17.0 mph27.4 kmh 30.06 in1017.9 mb 0.00 in0.0 mm 0.00 in0.0 mm 0.00 in0.0 mm
05:47 AM 36.7°F2.6°C 1.5°F-16.9°C 22% 15.0 mph SE24.1 kmh SE 22.0 mph35.4 kmh 30.08 in1018.6 mb 0.00 in0.0 mm 0.00 in0.0 mm 0.00 in0.0 mm
06:08 AM 36.3°F2.4°C 1.2°F-17.1°C 22% 4.0 mph SE6.4 kmh SE 7.0 mph11.3 kmh 30.07 in1018.3 mb 0.00 in0.0 mm 0.00 in0.0 mm 0.00 in0.0 mm
06:29 AM 36.1°F2.3°C 0.0°F-17.8°C 21% 7.0 mph S11.3 kmh S 12.0 mph19.3 kmh 30.08 in1018.6 mb 0.00 in0.0 mm 0.00 in0.0 mm 0.00 in0.0 mm
06:50 AM 35.8°F2.1°C -0.3°F-17.9°C 21% 5.0 mph SE8.0 kmh SE 10.0 mph16.1 kmh 30.07 in1018.3 mb 0.00 in0.0 mm 0.00 in0.0 mm 0.00 in0.0 mm
07:11 AM 35.4°F1.9°C 0.4°F-17.6°C 22% 6.0 mph E9.7 kmh E 8.0 mph12.9 kmh 30.09 in1019.0 mb 0.00 in0.0 mm 0.00 in0.0 mm 0.00 in0.0 mm
07:32 AM 35.4°F1.9°C 0.4°F-17.6°C 22% 2.0 mph E3.2 kmh E 4.0 mph6.4 kmh 30.09 in1019.0 mb 0.00 in0.0 mm 0.00 in0.0 mm 0.00 in0.0 mm
07:53 AM 35.4°F1.9°C 0.4°F-17.6°C 22% 3.0 mph SSE4.8 kmh SSE 5.0 mph8.0 kmh 30.07 in1018.3 mb 0.00 in0.0 mm 0.00 in0.0 mm 0.00 in0.0 mm
08:14 AM 35.4°F1.9°C 0.4°F-17.6°C 22% 6.0 mph NE9.7 kmh NE 9.0 mph14.5 kmh 30.07 in1018.3 mb 0.00 in0.0 mm 0.00 in0.0 mm 0.00 in0.0 mm
08:35 AM 35.6°F2.0°C -0.4°F-18.0°C 21% 8.0 mph S12.9 kmh S 15.0 mph24.1 kmh 30.09 in1019.0 mb 0.00 in0.0 mm 0.00 in0.0 mm 0.00 in0.0 mm
08:56 AM 36.0°F2.2°C -0.1°F-17.8°C 21% 8.0 mph ESE12.9 kmh ESE 11.0 mph17.7 kmh 30.09 in1019.0 mb 0.00 in0.0 mm 0.00 in0.0 mm 0.00 in0.0 mm
09:17 AM 37.2°F2.9°C 0.9°F-17.3°C 21% 6.0 mph E9.7 kmh E 10.0 mph16.1 kmh 30.07 in1018.3 mb 0.00 in0.0 mm 0.00 in0.0 mm 0.00 in0.0 mm
09:38 AM 36.7°F2.6°C 0.5°F-17.5°C 21% 4.0 mph SE6.4 kmh SE 8.0 mph12.9 kmh 30.06 in1017.9 mb 0.00 in0.0 mm 0.00 in0.0 mm 0.00 in0.0 mm
09:59 AM 35.8°F2.1°C -0.3°F-17.9°C 21% 11.0 mph SE17.7 kmh SE 15.0 mph24.1 kmh 30.07 in1018.3 mb 0.00 in0.0 mm 0.00 in0.0 mm 0.00 in0.0 mm
10:20 AM 34.3°F1.3°C 2.2°F-16.6°C 25% 8.0 mph 12.9 kmh 14.0 mph22.5 kmh 30.10 in1019.3 mb 0.00 in0.0 mm 0.00 in0.0 mm 0.00 in0.0 mm
10:41 AM 33.3°F0.7°C 5.9°F-14.5°C 31% 13.0 mph NW20.9 kmh NW 17.0 mph27.4 kmh 30.09 in1019.0 mb 0.00 in0.0 mm 0.00 in0.0 mm 0.00 in0.0 mm
11:02 AM 31.8°F-0.1°C 8.5°F-13.1°C 37% 14.0 mph 22.5 kmh 17.0 mph27.4 kmh 30.09 in1019.0 mb 0.00 in0.0 mm 0.00 in0.0 mm 0.00 in0.0 mm
11:23 AM 30.9°F-0.6°C 11.6°F-11.3°C 44% 5.0 mph 8.0 kmh 8.0 mph12.9 kmh 30.10 in1019.3 mb 0.00 in0.0 mm 0.00 in0.0 mm 0.00 in0.0 mm
11:44 AM 27.9°F-2.3°C 16.2°F-8.8°C 61% 4.0 mph 6.4 kmh 6.0 mph9.7 kmh 30.16 in1021.3 mb 0.00 in0.0 mm 0.00 in0.0 mm 0.00 in0.0 mm
12:05 PM 26.6°F-3.0°C 20.1°F-6.6°C 76% 2.0 mph 3.2 kmh 3.0 mph4.8 kmh 30.16 in1021.3 mb 0.00 in0.0 mm 0.00 in0.0 mm 0.00 in0.0 mm
12:26 PM 26.6°F-3.0°C 21.6°F-5.8°C 81% 6.0 mph 9.7 kmh 8.0 mph12.9 kmh 30.15 in1021.0 mb 0.00 in0.0 mm 0.00 in0.0 mm 0.00 in0.0 mm
12:47 PM 27.0°F-2.8°C 19.8°F-6.8°C 74% 5.0 mph 8.0 kmh 8.0 mph12.9 kmh 30.13 in1020.3 mb 0.00 in0.0 mm 0.00 in0.0 mm 0.00 in0.0 mm
01:08 PM 27.7°F-2.4°C 19.2°F-7.1°C 70% 2.0 mph 3.2 kmh 2.0 mph3.2 kmh 30.13 in1020.3 mb 0.00 in0.0 mm 0.00 in0.0 mm 0.00 in0.0 mm
01:29 PM 26.4°F-3.1°C 19.0°F-7.2°C 73% 4.0 mph 6.4 kmh 4.0 mph6.4 kmh 30.15 in1021.0 mb 0.00 in0.0 mm 0.00 in0.0 mm 0.00 in0.0 mm
01:50 PM 25.9°F-3.4°C 20.6°F-6.3°C 80% 4.0 mph 6.4 kmh 8.0 mph12.9 kmh 30.16 in1021.3 mb 0.00 in0.0 mm 0.00 in0.0 mm 0.00 in0.0 mm
02:11 PM 25.9°F-3.4°C 21.7°F-5.7°C 84% 3.0 mph SE4.8 kmh SE 4.0 mph6.4 kmh 30.18 in1022.0 mb 0.00 in0.0 mm 0.00 in0.0 mm 0.00 in0.0 mm
02:32 PM 25.7°F-3.5°C 22.1°F-5.5°C 86% 11.0 mph E17.7 kmh E 13.0 mph20.9 kmh 30.18 in1022.0 mb 0.00 in0.0 mm 0.00 in0.0 mm 0.00 in0.0 mm
02:53 PM 26.2°F-3.2°C 19.4°F-7.0°C 75% 4.0 mph SE6.4 kmh SE 5.0 mph8.0 kmh 30.18 in1022.0 mb 0.00 in0.0 mm 0.00 in0.0 mm 0.00 in0.0 mm
03:14 PM 26.1°F-3.3°C 15.9°F-8.9°C 65% 2.0 mph NW3.2 kmh NW 2.0 mph3.2 kmh 30.19 in1022.4 mb 0.00 in0.0 mm 0.00 in0.0 mm 0.00 in0.0 mm
03:35 PM 27.0°F-2.8°C 7.5°F-13.6°C 43% 3.0 mph S4.8 kmh S 5.0 mph8.0 kmh 30.18 in1022.0 mb 0.00 in0.0 mm 0.00 in0.0 mm 0.00 in0.0 mm
04:21 PM 25.5°F-3.6°C 5.3°F-14.8°C 41% 4.0 mph NNE6.4 kmh NNE 11.0 mph17.7 kmh 30.21 in1023.0 mb 0.00 in0.0 mm 0.00 in0.0 mm 0.00 in0.0 mm
04:42 PM 24.6°F-4.1°C 8.4°F-13.1°C 50% 3.0 mph W4.8 kmh W 6.0 mph9.7 kmh 30.22 in1023.4 mb 0.00 in0.0 mm 0.00 in0.0 mm 0.00 in0.0 mm
05:21 PM 22.8°F-5.1°C 15.5°F-9.2°C 73% 4.0 mph S6.4 kmh S 8.0 mph12.9 kmh 30.26 in1024.7 mb 0.00 in0.0 mm 0.00 in0.0 mm 0.00 in0.0 mm
05:42 PM 22.7°F-5.2°C 15.9°F-8.9°C 75% 5.0 mph S8.0 kmh S 11.0 mph17.7 kmh 30.25 in1024.4 mb 0.00 in0.0 mm 0.00 in0.0 mm 0.00 in0.0 mm
06:03 PM 23.2°F-4.9°C 14.1°F-9.9°C 68% 8.0 mph SSW12.9 kmh SSW 15.0 mph24.1 kmh 30.26 in1024.7 mb 0.00 in0.0 mm 0.00 in0.0 mm 0.00 in0.0 mm
06:21 PM 22.8°F-5.1°C 13.4°F-10.3°C 67% 8.0 mph S12.9 kmh S 15.0 mph24.1 kmh 30.26 in1024.7 mb 0.00 in0.0 mm 0.00 in0.0 mm 0.00 in0.0 mm
06:42 PM 23.1°F-4.9°C 12.8°F-10.7°C 64% 8.0 mph SSW12.9 kmh SSW 13.0 mph20.9 kmh 30.27 in1025.1 mb 0.00 in0.0 mm 0.00 in0.0 mm 0.00 in0.0 mm
07:03 PM 23.0°F-5.0°C 12.6°F-10.8°C 64% 8.0 mph S12.9 kmh S 21.0 mph33.8 kmh 30.27 in1025.1 mb 0.00 in0.0 mm 0.00 in0.0 mm 0.00 in0.0 mm
07:21 PM 23.2°F-4.9°C 12.8°F-10.7°C 64% 7.0 mph S11.3 kmh S 13.0 mph20.9 kmh 30.30 in1026.1 mb 0.00 in0.0 mm 0.00 in0.0 mm 0.00 in0.0 mm
07:42 PM 23.1°F-4.9°C 13.1°F-10.5°C 65% 5.0 mph SSW8.0 kmh SSW 11.0 mph17.7 kmh 30.31 in1026.4 mb 0.00 in0.0 mm 0.00 in0.0 mm 0.00 in0.0 mm
08:03 PM 21.8°F-5.7°C 15.2°F-9.3°C 75% 5.0 mph S8.0 kmh S 11.0 mph17.7 kmh 30.34 in1027.4 mb 0.00 in0.0 mm 0.00 in0.0 mm 0.00 in0.0 mm
08:21 PM 21.1°F-6.1°C 17.0°F-8.3°C 84% 4.0 mph SW6.4 kmh SW 11.0 mph17.7 kmh 30.36 in1028.1 mb 0.00 in0.0 mm 0.00 in0.0 mm 0.00 in0.0 mm
08:42 PM 21.1°F-6.1°C 17.7°F-7.9°C 86% 4.0 mph S6.4 kmh S 10.0 mph16.1 kmh 30.38 in1028.8 mb 0.00 in0.0 mm 0.00 in0.0 mm 0.00 in0.0 mm
09:03 PM 21.3°F-5.9°C 18.0°F-7.8°C 87% 4.0 mph SSW6.4 kmh SSW 8.0 mph12.9 kmh 30.38 in1028.8 mb 0.00 in0.0 mm 0.00 in0.0 mm 0.00 in0.0 mm
09:21 PM 21.6°F-5.8°C 18.3°F-7.6°C 87% 3.0 mph E4.8 kmh E 6.0 mph9.7 kmh 30.39 in1029.1 mb 0.00 in0.0 mm 0.00 in0.0 mm 0.00 in0.0 mm
09:42 PM 22.7°F-5.2°C 18.8°F-7.3°C 85% 5.0 mph SSW8.0 kmh SSW 12.0 mph19.3 kmh 30.38 in1028.8 mb 0.00 in0.0 mm 0.00 in0.0 mm 0.00 in0.0 mm
10:03 PM 22.7°F-5.2°C 18.0°F-7.8°C 82% 3.0 mph SSE4.8 kmh SSE 6.0 mph9.7 kmh 30.39 in1029.1 mb 0.00 in0.0 mm 0.00 in0.0 mm 0.00 in0.0 mm
10:21 PM 22.9°F-5.1°C 16.8°F-8.4°C 77% 1.0 mph SSE1.6 kmh SSE 4.0 mph6.4 kmh 30.40 in1029.5 mb 0.00 in0.0 mm 0.00 in0.0 mm 0.00 in0.0 mm
10:42 PM 23.1°F-4.9°C 15.4°F-9.2°C 72% 2.0 mph NNE3.2 kmh NNE 4.0 mph6.4 kmh 30.41 in1029.8 mb 0.00 in0.0 mm 0.00 in0.0 mm 0.00 in0.0 mm
11:03 PM 23.5°F-4.7°C 14.0°F-10.0°C 66% 1.0 mph SW1.6 kmh SW 4.0 mph6.4 kmh 30.41 in1029.8 mb 0.00 in0.0 mm 0.00 in0.0 mm 0.00 in0.0 mm
11:21 PM 23.5°F-4.7°C 13.0°F-10.6°C 64% 3.0 mph SE4.8 kmh SE 6.0 mph9.7 kmh 30.41 in1029.8 mb 0.00 in0.0 mm 0.00 in0.0 mm 0.00 in0.0 mm
11:38 PM 23.4°F-4.8°C 11.9°F-11.2°C 61% 3.0 mph SE4.8 kmh SE 4.0 mph6.4 kmh 30.42 in1030.1 mb 0.00 in0.0 mm 0.00 in0.0 mm 0.00 in0.0 mm
11:59 PM 23.7°F-4.6°C 11.5°F-11.4°C 59% 4.0 mph E6.4 kmh E 5.0 mph8.0 kmh 30.42 in1030.1 mb 0.00 in0.0 mm 0.00 in0.0 mm 0.00 in0.0 mm